sensor_id;sensor_type;location;lat;lon;timestamp;pressure;altitude;pressure_sealevel;temperature;humidity
60345;BME280;46188;52.324;8.032;2023-06-10T00:02:04;100510.13;;;18.05;73.24
60345;BME280;46188;52.324;8.032;2023-06-10T00:04:29;100511.16;;;17.99;73.69
60345;BME280;46188;52.324;8.032;2023-06-10T00:06:54;100508.69;;;17.87;74.19
60345;BME280;46188;52.324;8.032;2023-06-10T00:09:20;100502.50;;;17.83;74.70
60345;BME280;46188;52.324;8.032;2023-06-10T00:11:46;100502.53;;;17.82;74.92
60345;BME280;46188;52.324;8.032;2023-06-10T00:14:12;100500.63;;;17.90;74.90
60345;BME280;46188;52.324;8.032;2023-06-10T00:16:37;100503.38;;;17.84;75.19
60345;BME280;46188;52.324;8.032;2023-06-10T00:19:04;100498.19;;;17.78;75.79
60345;BME280;46188;52.324;8.032;2023-06-10T00:21:30;100501.69;;;17.80;75.63
60345;BME280;46188;52.324;8.032;2023-06-10T00:24:02;100495.50;;;17.78;75.75
60345;BME280;46188;52.324;8.032;2023-06-10T00:26:28;100493.91;;;17.67;76.55
60345;BME280;46188;52.324;8.032;2023-06-10T00:28:53;100492.16;;;17.66;76.68
60345;BME280;46188;52.324;8.032;2023-06-10T00:31:18;100490.41;;;17.64;77.17
60345;BME280;46188;52.324;8.032;2023-06-10T00:33:44;100495.72;;;17.65;77.32
60345;BME280;46188;52.324;8.032;2023-06-10T00:36:09;100494.16;;;17.53;77.76
60345;BME280;46188;52.324;8.032;2023-06-10T00:38:34;100494.09;;;17.57;77.92
60345;BME280;46188;52.324;8.032;2023-06-10T00:41:00;100487.97;;;17.51;78.50
60345;BME280;46188;52.324;8.032;2023-06-10T00:43:25;100486.22;;;17.49;78.54
60345;BME280;46188;52.324;8.032;2023-06-10T00:45:51;100484.56;;;17.43;78.92
60345;BME280;46188;52.324;8.032;2023-06-10T00:48:17;100495.16;;;17.48;78.38
60345;BME280;46188;52.324;8.032;2023-06-10T00:50:43;100487.28;;;17.40;79.15
60345;BME280;46188;52.324;8.032;2023-06-10T00:53:09;100478.47;;;17.35;79.61
60345;BME280;46188;52.324;8.032;2023-06-10T00:55:35;100491.03;;;17.28;79.45
60345;BME280;46188;52.324;8.032;2023-06-10T00:58:00;100485.84;;;17.19;80.24
60345;BME280;46188;52.324;8.032;2023-06-10T01:00:26;100493.81;;;17.19;80.55
60345;BME280;46188;52.324;8.032;2023-06-10T01:02:51;100494.63;;;17.24;80.20
60345;BME280;46188;52.324;8.032;2023-06-10T01:05:20;100492.97;;;17.17;80.96
60345;BME280;46188;52.324;8.032;2023-06-10T01:08:09;100494.00;;;17.10;81.86
60345;BME280;46188;52.324;8.032;2023-06-10T01:10:58;100495.72;;;17.11;81.34
60345;BME280;46188;52.324;8.032;2023-06-10T01:13:25;100494.06;;;17.05;82.05
60345;BME280;46188;52.324;8.032;2023-06-10T01:15:54;100497.72;;;16.98;82.28
60345;BME280;46188;52.324;8.032;2023-06-10T01:18:20;100501.28;;;16.97;82.35
60345;BME280;46188;52.324;8.032;2023-06-10T01:20:47;100499.50;;;16.96;82.53
60345;BME280;46188;52.324;8.032;2023-06-10T01:23:14;100499.53;;;16.93;83.20
60345;BME280;46188;52.324;8.032;2023-06-10T01:25:41;100505.84;;;16.89;82.92
60345;BME280;46188;52.324;8.032;2023-06-10T01:28:31;100509.44;;;16.85;83.13
60345;BME280;46188;52.324;8.032;2023-06-10T01:31:23;100519.19;;;16.83;83.57
60345;BME280;46188;52.324;8.032;2023-06-10T01:33:59;100518.34;;;16.81;83.80
60345;BME280;46188;52.324;8.032;2023-06-10T01:36:25;100509.47;;;16.80;83.77
60345;BME280;46188;52.324;8.032;2023-06-10T01:38:51;100514.84;;;16.77;84.19
60345;BME280;46188;52.324;8.032;2023-06-10T01:41:18;100518.41;;;16.74;84.32
60345;BME280;46188;52.324;8.032;2023-06-10T01:43:44;100527.31;;;16.73;84.32
60345;BME280;46188;52.324;8.032;2023-06-10T01:46:10;100526.56;;;16.64;84.65
60345;BME280;46188;52.324;8.032;2023-06-10T01:48:37;100526.59;;;16.60;85.14
60345;BME280;46188;52.324;8.032;2023-06-10T01:51:02;100521.28;;;16.60;85.08
60345;BME280;46188;52.324;8.032;2023-06-10T01:53:28;100518.72;;;16.53;85.43
60345;BME280;46188;52.324;8.032;2023-06-10T01:55:53;100518.75;;;16.48;85.62
60345;BME280;46188;52.324;8.032;2023-06-10T01:58:18;100527.66;;;16.47;85.80
60345;BME280;46188;52.324;8.032;2023-06-10T02:00:43;100525.06;;;16.39;85.86
60345;BME280;46188;52.324;8.032;2023-06-10T02:03:09;100526.09;;;16.29;86.42
60345;BME280;46188;52.324;8.032;2023-06-10T02:05:34;100526.94;;;16.31;86.67
60345;BME280;46188;52.324;8.032;2023-06-10T02:08:00;100522.50;;;16.32;86.47
60345;BME280;46188;52.324;8.032;2023-06-10T02:10:25;100524.34;;;16.27;86.55
60345;BME280;46188;52.324;8.032;2023-06-10T02:12:51;100525.31;;;16.19;86.97
60345;BME280;46188;52.324;8.032;2023-06-10T02:15:16;100526.25;;;16.15;86.79
60345;BME280;46188;52.324;8.032;2023-06-10T02:17:41;100536.09;;;16.07;86.97
60345;BME280;46188;52.324;8.032;2023-06-10T02:20:07;100530.88;;;15.96;87.83
60345;BME280;46188;52.324;8.032;2023-06-10T02:22:35;100534.41;;;15.98;87.68
60345;BME280;46188;52.324;8.032;2023-06-10T02:25:01;100532.69;;;15.94;87.81
60345;BME280;46188;52.324;8.032;2023-06-10T02:27:26;100537.19;;;15.88;88.23
60345;BME280;46188;52.324;8.032;2023-06-10T02:29:52;100536.28;;;15.87;88.20
60345;BME280;46188;52.324;8.032;2023-06-10T02:32:17;100549.66;;;15.79;88.76
60345;BME280;46188;52.324;8.032;2023-06-10T02:34:42;100551.41;;;15.82;88.44
60345;BME280;46188;52.324;8.032;2023-06-10T02:37:08;100542.56;;;15.78;88.81
60345;BME280;46188;52.324;8.032;2023-06-10T02:39:34;100538.19;;;15.73;88.75
60345;BME280;46188;52.324;8.032;2023-06-10T02:41:59;100546.22;;;15.62;89.43
60345;BME280;46188;52.324;8.032;2023-06-10T02:44:24;100547.13;;;15.62;89.73
60345;BME280;46188;52.324;8.032;2023-06-10T02:46:50;100555.97;;;15.64;89.32
60345;BME280;46188;52.324;8.032;2023-06-10T02:49:15;100548.00;;;15.63;89.49
60345;BME280;46188;52.324;8.032;2023-06-10T02:51:40;100548.03;;;15.58;89.54
60345;BME280;46188;52.324;8.032;2023-06-10T02:54:06;100548.06;;;15.54;89.91
60345;BME280;46188;52.324;8.032;2023-06-10T02:56:31;100556.06;;;15.49;90.41
60345;BME280;46188;52.324;8.032;2023-06-10T02:58:58;100545.44;;;15.49;90.40
60345;BME280;46188;52.324;8.032;2023-06-10T03:01:23;100544.59;;;15.45;90.80
60345;BME280;46188;52.324;8.032;2023-06-10T03:03:48;100542.84;;;15.44;91.35
60345;BME280;46188;52.324;8.032;2023-06-10T03:06:15;100541.94;;;15.44;91.21
60345;BME280;46188;52.324;8.032;2023-06-10T03:08:41;100538.38;;;15.48;91.12
60345;BME280;46188;52.324;8.032;2023-06-10T03:11:06;100553.47;;;15.44;90.84
60345;BME280;46188;52.324;8.032;2023-06-10T03:13:32;100545.50;;;15.43;91.25
60345;BME280;46188;52.324;8.032;2023-06-10T03:15:57;100550.84;;;15.41;91.04
60345;BME280;46188;52.324;8.032;2023-06-10T03:18:26;100547.38;;;15.28;91.34
60345;BME280;46188;52.324;8.032;2023-06-10T03:20:51;100545.66;;;15.26;92.07
60345;BME280;46188;52.324;8.032;2023-06-10T03:23:17;100548.22;;;15.32;91.53
60345;BME280;46188;52.324;8.032;2023-06-10T03:25:43;100541.19;;;15.28;91.50
60345;BME280;46188;52.324;8.032;2023-06-10T03:28:08;100553.59;;;15.26;91.74
60345;BME280;46188;52.324;8.032;2023-06-10T03:30:34;100556.28;;;15.23;91.82
60345;BME280;46188;52.324;8.032;2023-06-10T03:32:59;100554.50;;;15.25;91.87
60345;BME280;46188;52.324;8.032;2023-06-10T03:35:26;100562.50;;;15.17;92.05
60345;BME280;46188;52.324;8.032;2023-06-10T03:37:51;100564.28;;;15.13;92.88
60345;BME280;46188;52.324;8.032;2023-06-10T03:40:17;100556.34;;;15.13;92.63
60345;BME280;46188;52.324;8.032;2023-06-10T03:42:42;100567.84;;;15.12;92.99
60345;BME280;46188;52.324;8.032;2023-06-10T03:45:09;100565.22;;;15.08;93.04
60345;BME280;46188;52.324;8.032;2023-06-10T03:47:35;100574.94;;;15.12;92.79
60345;BME280;46188;52.324;8.032;2023-06-10T03:50:05;100573.13;;;15.12;92.38
60345;BME280;46188;52.324;8.032;2023-06-10T03:52:30;100577.59;;;15.07;93.03
60345;BME280;46188;52.324;8.032;2023-06-10T03:54:55;100573.22;;;15.05;93.11
60345;BME280;46188;52.324;8.032;2023-06-10T03:57:21;100573.19;;;15.08;93.05
60345;BME280;46188;52.324;8.032;2023-06-10T03:59:46;100569.66;;;15.04;92.75
60345;BME280;46188;52.324;8.032;2023-06-10T04:02:11;100571.41;;;15.08;92.82
60345;BME280;46188;52.324;8.032;2023-06-10T04:04:36;100563.47;;;15.02;93.43
60345;BME280;46188;52.324;8.032;2023-06-10T04:07:03;100561.72;;;15.03;93.56
60345;BME280;46188;52.324;8.032;2023-06-10T04:09:28;100558.16;;;15.02;93.09
60345;BME280;46188;52.324;8.032;2023-06-10T04:11:53;100560.84;;;14.99;93.54
60345;BME280;46188;52.324;8.032;2023-06-10T04:14:19;100554.63;;;15.05;92.99
60345;BME280;46188;52.324;8.032;2023-06-10T04:16:44;100566.19;;;14.94;93.60
60345;BME280;46188;52.324;8.032;2023-06-10T04:19:09;100557.31;;;14.97;93.68
60345;BME280;46188;52.324;8.032;2023-06-10T04:21:35;100563.47;;;15.01;93.64
60345;BME280;46188;52.324;8.032;2023-06-10T04:24:01;100561.75;;;14.97;93.71
60345;BME280;46188;52.324;8.032;2023-06-10T04:26:27;100568.78;;;15.02;93.01
60345;BME280;46188;52.324;8.032;2023-06-10T04:28:52;100567.91;;;15.00;93.12
60345;BME280;46188;52.324;8.032;2023-06-10T04:31:17;100575.03;;;14.98;93.61
60345;BME280;46188;52.324;8.032;2023-06-10T04:33:43;100572.38;;;14.95;93.84
60345;BME280;46188;52.324;8.032;2023-06-10T04:36:08;100565.25;;;15.00;93.47
60345;BME280;46188;52.324;8.032;2023-06-10T04:38:33;100566.13;;;15.02;93.88
60345;BME280;46188;52.324;8.032;2023-06-10T04:40:59;100574.06;;;15.10;93.39
60345;BME280;46188;52.324;8.032;2023-06-10T04:43:24;100579.34;;;15.13;93.46
60345;BME280;46188;52.324;8.032;2023-06-10T04:45:49;100577.56;;;15.13;92.92
60345;BME280;46188;52.324;8.032;2023-06-10T04:48:15;100573.13;;;15.14;93.67
60345;BME280;46188;52.324;8.032;2023-06-10T04:50:40;100574.03;;;15.18;93.83
60345;BME280;46188;52.324;8.032;2023-06-10T04:53:05;100573.13;;;15.16;94.01
60345;BME280;46188;52.324;8.032;2023-06-10T04:55:33;100573.97;;;15.19;93.79
60345;BME280;46188;52.324;8.032;2023-06-10T04:57:59;100570.47;;;15.19;94.10
60345;BME280;46188;52.324;8.032;2023-06-10T05:00:24;100577.50;;;15.26;94.04
60345;BME280;46188;52.324;8.032;2023-06-10T05:02:50;100563.31;;;15.30;93.81
60345;BME280;46188;52.324;8.032;2023-06-10T05:05:17;100568.50;;;15.42;93.23
60345;BME280;46188;52.324;8.032;2023-06-10T05:07:42;100570.31;;;15.40;93.55
60345;BME280;46188;52.324;8.032;2023-06-10T05:10:08;100571.25;;;15.36;94.15
60345;BME280;46188;52.324;8.032;2023-06-10T05:12:33;100574.75;;;15.41;94.07
60345;BME280;46188;52.324;8.032;2023-06-10T05:14:58;100575.59;;;15.43;93.78
60345;BME280;46188;52.324;8.032;2023-06-10T05:17:23;100575.59;;;15.46;94.55
60345;BME280;46188;52.324;8.032;2023-06-10T05:19:50;100577.25;;;15.60;94.18
60345;BME280;46188;52.324;8.032;2023-06-10T05:22:15;100578.09;;;15.66;93.73
60345;BME280;46188;52.324;8.032;2023-06-10T05:24:43;100578.03;;;15.74;93.23
60345;BME280;46188;52.324;8.032;2023-06-10T05:27:09;100580.72;;;15.69;93.56
60345;BME280;46188;52.324;8.032;2023-06-10T05:29:34;100576.25;;;15.73;93.84
60345;BME280;46188;52.324;8.032;2023-06-10T05:31:59;100580.56;;;15.91;93.13
60345;BME280;46188;52.324;8.032;2023-06-10T05:34:28;100580.41;;;16.08;92.18
60345;BME280;46188;52.324;8.032;2023-06-10T05:36:53;100590.22;;;16.00;92.39
60345;BME280;46188;52.324;8.032;2023-06-10T05:39:18;100591.06;;;16.05;92.41
60345;BME280;46188;52.324;8.032;2023-06-10T05:41:43;100596.31;;;16.13;91.64
60345;BME280;46188;52.324;8.032;2023-06-10T05:44:09;100592.59;;;16.29;91.34
60345;BME280;46188;52.324;8.032;2023-06-10T05:46:34;100598.59;;;16.47;90.75
60345;BME280;46188;52.324;8.032;2023-06-10T05:48:59;100596.81;;;16.50;90.46
60345;BME280;46188;52.324;8.032;2023-06-10T05:51:24;100597.66;;;16.52;90.36
60345;BME280;46188;52.324;8.032;2023-06-10T05:53:50;100594.03;;;16.59;90.03
60345;BME280;46188;52.324;8.032;2023-06-10T05:56:15;100592.16;;;16.66;89.86
60345;BME280;46188;52.324;8.032;2023-06-10T05:58:41;100593.09;;;16.65;89.90
60345;BME280;46188;52.324;8.032;2023-06-10T06:01:06;100600.06;;;16.74;89.23
60345;BME280;46188;52.324;8.032;2023-06-10T06:03:31;100593.78;;;16.79;88.89
60345;BME280;46188;52.324;8.032;2023-06-10T06:05:56;100588.41;;;16.84;88.91
60345;BME280;46188;52.324;8.032;2023-06-10T06:08:22;100590.09;;;16.93;88.28
60345;BME280;46188;52.324;8.032;2023-06-10T06:10:47;100588.19;;;17.01;87.83
60345;BME280;46188;52.324;8.032;2023-06-10T06:13:15;100589.91;;;17.08;87.73
60345;BME280;46188;52.324;8.032;2023-06-10T06:15:40;100583.66;;;17.09;87.57
60345;BME280;46188;52.324;8.032;2023-06-10T06:18:06;100586.13;;;17.23;87.51
60345;BME280;46188;52.324;8.032;2023-06-10T06:20:31;100593.19;;;17.24;87.05
60345;BME280;46188;52.324;8.032;2023-06-10T06:22:56;100595.94;;;17.21;87.26
60345;BME280;46188;52.324;8.032;2023-06-10T06:25:22;100591.34;;;17.29;87.03
60345;BME280;46188;52.324;8.032;2023-06-10T06:27:48;100594.63;;;17.50;86.03
60345;BME280;46188;52.324;8.032;2023-06-10T06:30:13;100590.88;;;17.60;85.48
60345;BME280;46188;52.324;8.032;2023-06-10T06:32:38;100588.09;;;17.68;84.90
60345;BME280;46188;52.324;8.032;2023-06-10T06:35:04;100595.13;;;17.74;84.50
60345;BME280;46188;52.324;8.032;2023-06-10T06:37:32;100594.25;;;17.73;84.71
60345;BME280;46188;52.324;8.032;2023-06-10T06:39:58;100595.13;;;17.72;83.90
60345;BME280;46188;52.324;8.032;2023-06-10T06:42:23;100597.63;;;17.84;83.85
60345;BME280;46188;52.324;8.032;2023-06-10T06:44:48;100598.28;;;17.97;84.10
60345;BME280;46188;52.324;8.032;2023-06-10T06:47:13;100599.69;;;18.18;83.38
60345;BME280;46188;52.324;8.032;2023-06-10T06:49:39;100595.06;;;18.28;82.67
60345;BME280;46188;52.324;8.032;2023-06-10T06:52:04;100598.59;;;18.30;82.89
60345;BME280;46188;52.324;8.032;2023-06-10T06:54:30;100601.31;;;18.27;83.24
60345;BME280;46188;52.324;8.032;2023-06-10T06:56:56;100605.63;;;18.36;82.41
60345;BME280;46188;52.324;8.032;2023-06-10T06:59:21;100604.38;;;18.54;81.77
60345;BME280;46188;52.324;8.032;2023-06-10T07:01:47;100604.16;;;18.65;81.22
60345;BME280;46188;52.324;8.032;2023-06-10T07:04:14;100604.78;;;18.77;80.81
60345;BME280;46188;52.324;8.032;2023-06-10T07:06:40;100603.66;;;18.91;79.51
60345;BME280;46188;52.324;8.032;2023-06-10T07:09:05;100605.22;;;19.01;79.22
60345;BME280;46188;52.324;8.032;2023-06-10T07:11:31;100608.59;;;19.09;78.89
60345;BME280;46188;52.324;8.032;2023-06-10T07:13:56;100613.81;;;19.15;78.93
60345;BME280;46188;52.324;8.032;2023-06-10T07:16:22;100620.66;;;19.27;77.71
60345;BME280;46188;52.324;8.032;2023-06-10T07:18:47;100620.66;;;19.27;77.79
60345;BME280;46188;52.324;8.032;2023-06-10T07:21:12;100609.16;;;19.24;77.90
60345;BME280;46188;52.324;8.032;2023-06-10T07:23:41;100613.31;;;19.37;77.52
60345;BME280;46188;52.324;8.032;2023-06-10T07:26:07;100613.88;;;19.51;76.90
60345;BME280;46188;52.324;8.032;2023-06-10T07:28:33;100606.34;;;19.67;76.72
60345;BME280;46188;52.324;8.032;2023-06-10T07:30:58;100608.91;;;19.72;75.47
60345;BME280;46188;52.324;8.032;2023-06-10T07:33:23;100613.19;;;19.81;74.81
60345;BME280;46188;52.324;8.032;2023-06-10T07:35:48;100610.44;;;20.18;74.00
60345;BME280;46188;52.324;8.032;2023-06-10T07:38:14;100609.03;;;20.38;73.22
60345;BME280;46188;52.324;8.032;2023-06-10T07:40:39;100606.88;;;20.52;72.26
60345;BME280;46188;52.324;8.032;2023-06-10T07:43:04;100616.31;;;20.67;71.13
60345;BME280;46188;52.324;8.032;2023-06-10T07:45:29;100607.25;;;20.71;71.05
60345;BME280;46188;52.324;8.032;2023-06-10T07:47:55;100607.56;;;20.90;70.78
60345;BME280;46188;52.324;8.032;2023-06-10T07:50:20;100600.94;;;21.04;70.01
60345;BME280;46188;52.324;8.032;2023-06-10T07:52:46;100604.78;;;21.23;69.33
60345;BME280;46188;52.324;8.032;2023-06-10T07:56:26;100605.09;;;21.14;68.86
60345;BME280;46188;52.324;8.032;2023-06-10T07:58:51;100608.41;;;21.22;69.01
60345;BME280;46188;52.324;8.032;2023-06-10T08:01:16;100611.66;;;21.33;68.09
60345;BME280;46188;52.324;8.032;2023-06-10T08:03:42;100606.25;;;21.63;67.43
60345;BME280;46188;52.324;8.032;2023-06-10T08:06:07;100611.94;;;21.81;66.24
60345;BME280;46188;52.324;8.032;2023-06-10T08:08:33;100605.88;;;21.74;66.39
60345;BME280;46188;52.324;8.032;2023-06-10T08:10:59;100603.78;;;21.84;65.70
60345;BME280;46188;52.324;8.032;2023-06-10T08:13:25;100606.50;;;22.09;65.07
60345;BME280;46188;52.324;8.032;2023-06-10T08:15:50;100610.63;;;21.92;65.42
60345;BME280;46188;52.324;8.032;2023-06-10T08:18:15;100606.50;;;22.09;65.30
60345;BME280;46188;52.324;8.032;2023-06-10T08:20:41;100599.59;;;22.27;64.86
60345;BME280;46188;52.324;8.032;2023-06-10T08:23:06;100607.88;;;22.47;63.77
60345;BME280;46188;52.324;8.032;2023-06-10T08:25:31;100597.13;;;22.47;64.02
60345;BME280;46188;52.324;8.032;2023-06-10T08:27:57;100603.66;;;22.64;63.16
60345;BME280;46188;52.324;8.032;2023-06-10T08:30:22;100601.06;;;22.86;63.01
60345;BME280;46188;52.324;8.032;2023-06-10T08:32:48;100599.72;;;22.74;61.97
60345;BME280;46188;52.324;8.032;2023-06-10T08:35:13;100602.47;;;22.73;62.07
60345;BME280;46188;52.324;8.032;2023-06-10T08:37:38;100603.44;;;22.70;60.98
60345;BME280;46188;52.324;8.032;2023-06-10T08:40:04;100609.13;;;22.86;60.09
60345;BME280;46188;52.324;8.032;2023-06-10T08:42:39;100607.84;;;22.96;58.89
60345;BME280;46188;52.324;8.032;2023-06-10T08:45:07;100605.03;;;22.99;59.29
60345;BME280;46188;52.324;8.032;2023-06-10T08:47:34;100610.25;;;23.04;58.41
60345;BME280;46188;52.324;8.032;2023-06-10T08:50:03;100606.88;;;22.99;59.05
60345;BME280;46188;52.324;8.032;2023-06-10T08:52:35;100611.00;;;23.31;58.28
60345;BME280;46188;52.324;8.032;2023-06-10T08:55:10;100613.25;;;23.64;58.04
60345;BME280;46188;52.324;8.032;2023-06-10T08:57:36;100610.19;;;23.95;57.10
60345;BME280;46188;52.324;8.032;2023-06-10T09:00:02;100603.63;;;23.81;57.28
60345;BME280;46188;52.324;8.032;2023-06-10T09:02:28;100606.63;;;23.73;57.80
60345;BME280;46188;52.324;8.032;2023-06-10T09:04:56;100607.88;;;23.86;57.17
60345;BME280;46188;52.324;8.032;2023-06-10T09:07:22;100600.84;;;23.84;57.00
60345;BME280;46188;52.324;8.032;2023-06-10T09:09:49;100597.59;;;23.96;56.84
60345;BME280;46188;52.324;8.032;2023-06-10T09:12:14;100601.06;;;24.20;56.42
60345;BME280;46188;52.324;8.032;2023-06-10T09:14:41;100606.19;;;24.47;56.18
60345;BME280;46188;52.324;8.032;2023-06-10T09:17:06;100602.34;;;24.73;55.73
60345;BME280;46188;52.324;8.032;2023-06-10T09:19:32;100608.91;;;24.86;55.43
60345;BME280;46188;52.324;8.032;2023-06-10T09:21:58;100605.75;;;24.77;55.03
60345;BME280;46188;52.324;8.032;2023-06-10T09:24:24;100611.03;;;24.59;55.43
60345;BME280;46188;52.324;8.032;2023-06-10T09:26:49;100602.69;;;24.65;56.16
60345;BME280;46188;52.324;8.032;2023-06-10T09:29:16;100600.13;;;24.62;56.27
60345;BME280;46188;52.324;8.032;2023-06-10T09:31:43;100594.25;;;24.73;56.50
60345;BME280;46188;52.324;8.032;2023-06-10T09:34:13;100600.47;;;24.94;56.09
60345;BME280;46188;52.324;8.032;2023-06-10T09:36:40;100600.53;;;24.93;54.75
60345;BME280;46188;52.324;8.032;2023-06-10T09:39:13;100596.31;;;25.06;52.83
60345;BME280;46188;52.324;8.032;2023-06-10T09:41:41;100597.03;;;25.10;53.63
60345;BME280;46188;52.324;8.032;2023-06-10T09:44:17;100593.16;;;25.53;53.52
60345;BME280;46188;52.324;8.032;2023-06-10T09:46:45;100592.47;;;25.67;53.83
60345;BME280;46188;52.324;8.032;2023-06-10T09:49:11;100599.75;;;25.48;51.48
60345;BME280;46188;52.324;8.032;2023-06-10T09:51:36;100592.00;;;25.21;49.86
60345;BME280;46188;52.324;8.032;2023-06-10T09:54:02;100591.28;;;25.17;50.21
60345;BME280;46188;52.324;8.032;2023-06-10T09:56:35;100595.00;;;25.53;49.89
60345;BME280;46188;52.324;8.032;2023-06-10T09:59:01;100596.47;;;25.77;49.26
60345;BME280;46188;52.324;8.032;2023-06-10T10:01:27;100599.88;;;25.64;48.99
60345;BME280;46188;52.324;8.032;2023-06-10T10:03:52;100600.72;;;25.64;49.99
60345;BME280;46188;52.324;8.032;2023-06-10T10:06:19;100598.22;;;25.78;50.29
60345;BME280;46188;52.324;8.032;2023-06-10T10:08:46;100585.09;;;25.88;50.57
60345;BME280;46188;52.324;8.032;2023-06-10T10:11:12;100597.22;;;26.33;50.34
60345;BME280;46188;52.324;8.032;2023-06-10T10:13:37;100594.00;;;26.43;50.11
60345;BME280;46188;52.324;8.032;2023-06-10T10:16:10;100597.88;;;26.55;49.74
60345;BME280;46188;52.324;8.032;2023-06-10T10:18:39;100602.41;;;26.38;48.04
60345;BME280;46188;52.324;8.032;2023-06-10T10:21:07;100597.47;;;26.29;47.93
60345;BME280;46188;52.324;8.032;2023-06-10T10:26:26;100597.94;;;26.37;48.65
60345;BME280;46188;52.324;8.032;2023-06-10T10:29:07;100590.75;;;26.36;48.36
60345;BME280;46188;52.324;8.032;2023-06-10T10:31:36;100599.56;;;26.40;48.89
60345;BME280;46188;52.324;8.032;2023-06-10T10:34:06;100597.38;;;26.13;48.90
60345;BME280;46188;52.324;8.032;2023-06-10T10:36:32;100596.66;;;26.09;48.86
60345;BME280;46188;52.324;8.032;2023-06-10T10:38:57;100595.53;;;26.48;48.13
60345;BME280;46188;52.324;8.032;2023-06-10T10:41:24;100596.63;;;26.62;47.24
60345;BME280;46188;52.324;8.032;2023-06-10T10:43:52;100591.94;;;26.48;47.28
60345;BME280;46188;52.324;8.032;2023-06-10T10:46:18;100589.59;;;26.42;47.48
60345;BME280;46188;52.324;8.032;2023-06-10T10:48:44;100595.16;;;26.90;47.82
60345;BME280;46188;52.324;8.032;2023-06-10T10:51:10;100591.78;;;27.18;46.89
60345;BME280;46188;52.324;8.032;2023-06-10T10:53:39;100585.56;;;27.00;46.11
60345;BME280;46188;52.324;8.032;2023-06-10T10:56:13;100590.53;;;27.07;45.81
60345;BME280;46188;52.324;8.032;2023-06-10T10:58:40;100587.13;;;27.04;44.42
60345;BME280;46188;52.324;8.032;2023-06-10T11:01:12;100594.25;;;26.89;44.63
60345;BME280;46188;52.324;8.032;2023-06-10T11:03:46;100592.69;;;27.01;45.60
60345;BME280;46188;52.324;8.032;2023-06-10T11:06:17;100588.09;;;27.19;46.16
60345;BME280;46188;52.324;8.032;2023-06-10T11:11:26;100582.94;;;27.62;46.30
60345;BME280;46188;52.324;8.032;2023-06-10T11:16:28;100582.00;;;27.47;46.43
60345;BME280;46188;52.324;8.032;2023-06-10T11:18:54;100581.56;;;27.39;45.98
60345;BME280;46188;52.324;8.032;2023-06-10T11:21:20;100585.25;;;27.38;45.73
60345;BME280;46188;52.324;8.032;2023-06-10T11:23:45;100580.09;;;27.33;44.93
60345;BME280;46188;52.324;8.032;2023-06-10T11:26:15;100566.72;;;27.46;44.60
60345;BME280;46188;52.324;8.032;2023-06-10T11:28:42;100567.19;;;27.69;44.56
60345;BME280;46188;52.324;8.032;2023-06-10T11:31:30;100564.13;;;27.75;44.13
60345;BME280;46188;52.324;8.032;2023-06-10T11:34:00;100568.63;;;27.60;43.48
60345;BME280;46188;52.324;8.032;2023-06-10T11:36:26;100563.28;;;27.74;43.06
60345;BME280;46188;52.324;8.032;2023-06-10T11:38:55;100564.72;;;27.80;43.22
60345;BME280;46188;52.324;8.032;2023-06-10T11:41:21;100564.63;;;27.97;42.15
60345;BME280;46188;52.324;8.032;2023-06-10T11:43:47;100560.47;;;27.76;41.04
60345;BME280;46188;52.324;8.032;2023-06-10T11:46:13;100562.50;;;27.72;40.91
60345;BME280;46188;52.324;8.032;2023-06-10T11:48:38;100561.09;;;27.65;41.44
60345;BME280;46188;52.324;8.032;2023-06-10T11:51:07;100561.56;;;27.88;40.85
60345;BME280;46188;52.324;8.032;2023-06-10T11:53:32;100567.75;;;28.06;40.16
60345;BME280;46188;52.324;8.032;2023-06-10T11:55:58;100564.47;;;28.15;39.02
60345;BME280;46188;52.324;8.032;2023-06-10T21:48:11;100565.09;;;19.03;82.45
60345;BME280;46188;52.324;8.032;2023-06-10T21:50:37;100558.53;;;19.17;82.52
60345;BME280;46188;52.324;8.032;2023-06-10T21:53:02;100566.97;;;19.38;81.83
60345;BME280;46188;52.324;8.032;2023-06-10T21:55:27;100556.16;;;19.43;81.17
60345;BME280;46188;52.324;8.032;2023-06-10T21:57:52;100554.31;;;19.46;81.38
60345;BME280;46188;52.324;8.032;2023-06-10T22:00:18;100554.31;;;19.46;81.41
60345;BME280;46188;52.324;8.032;2023-06-10T22:02:45;100559.66;;;19.46;81.45
60345;BME280;46188;52.324;8.032;2023-06-10T22:05:10;100564.09;;;19.46;81.32
60345;BME280;46188;52.324;8.032;2023-06-10T22:07:35;100561.63;;;19.38;81.91
60345;BME280;46188;52.324;8.032;2023-06-10T22:10:01;100562.66;;;19.31;82.31
60345;BME280;46188;52.324;8.032;2023-06-10T22:12:27;100560.00;;;19.31;82.60
60345;BME280;46188;52.324;8.032;2023-06-10T22:14:53;100559.22;;;19.26;82.56
60345;BME280;46188;52.324;8.032;2023-06-10T22:17:18;100564.66;;;19.21;82.37
60345;BME280;46188;52.324;8.032;2023-06-10T22:19:43;100570.06;;;19.20;82.69
60345;BME280;46188;52.324;8.032;2023-06-10T22:22:09;100570.25;;;19.12;83.14
60345;BME280;46188;52.324;8.032;2023-06-10T22:24:35;100572.88;;;19.13;83.00
60345;BME280;46188;52.324;8.032;2023-06-10T22:27:01;100581.88;;;19.09;82.67
60345;BME280;46188;52.324;8.032;2023-06-10T22:29:27;100579.19;;;19.09;83.23
60345;BME280;46188;52.324;8.032;2023-06-10T22:31:53;100584.44;;;19.14;82.65
60345;BME280;46188;52.324;8.032;2023-06-10T22:34:18;100585.38;;;19.11;82.64
60345;BME280;46188;52.324;8.032;2023-06-10T22:36:44;100580.03;;;19.11;82.93
60345;BME280;46188;52.324;8.032;2023-06-10T22:39:09;100586.25;;;19.13;82.82
60345;BME280;46188;52.324;8.032;2023-06-10T22:41:40;100583.72;;;19.07;82.88
60345;BME280;46188;52.324;8.032;2023-06-10T22:44:06;100578.63;;;18.95;83.40
60345;BME280;46188;52.324;8.032;2023-06-10T22:46:31;100580.44;;;18.93;83.36